Time;durP1;ratioP1;P1;durP2;ratioP2;P2;SDS_P1;SDS_P2;PMS_P1;PMS_P2;Temp;Humidity;BMP_temperature;BMP_pressure;BME280_temperature;BME280_humidity;BME280_pressure;Samples;Min_cycle;Max_cycle;Signal;HPM_P1;HPM_P2
2024/03/17 00:01:46;;;;;;;7.93;1.90;;;;;;;-141.50;100.00;63355.56;5030433;28;20101;-81
2024/03/17 00:04:11;;;;;;;4.82;1.60;;;;;;;-141.50;100.00;63355.56;5047609;28;20043;-80
2024/03/17 00:06:37;;;;;;;2.80;1.50;;;;;;;-141.50;100.00;63355.56;5047713;28;20044;-81
2024/03/17 00:09:06;;;;;;;3.72;1.50;;;;;;;-141.50;100.00;63355.56;5030089;28;20737;-81
2024/03/17 00:11:35;;;;;;;5.80;1.70;;;;;;;-141.50;100.00;63355.56;5030395;28;20036;-80
2024/03/17 00:14:03;;;;;;;6.47;2.03;;;;;;;-141.50;100.00;63355.56;5030182;28;20415;-81
2024/03/17 00:16:29;;;;;;;3.05;1.17;;;;;;;-141.50;100.00;63355.56;5030695;28;20040;-81
2024/03/17 00:18:55;;;;;;;6.50;1.83;;;;;;;-141.50;100.00;63355.56;5050779;28;20483;-81
2024/03/17 00:21:26;;;;;;;5.47;1.77;;;;;;;-141.50;100.00;63355.56;5037123;28;20060;-80
2024/03/17 00:23:51;;;;;;;7.18;2.00;;;;;;;-141.50;100.00;63355.56;5032639;28;20049;-80
2024/03/17 00:26:19;;;;;;;5.80;1.67;;;;;;;-141.50;100.00;63355.56;5050183;28;20067;-80
2024/03/17 00:28:48;;;;;;;4.35;1.70;;;;;;;-141.50;100.00;63355.56;5052326;28;20083;-80
2024/03/17 00:31:17;;;;;;;5.68;1.40;;;;;;;-141.50;100.00;63355.56;5014714;28;20094;-80
2024/03/17 00:33:44;;;;;;;4.15;1.80;;;;;;;-141.50;100.00;63355.56;5035947;28;20369;-80
2024/03/17 00:36:10;;;;;;;4.07;1.33;;;;;;;-141.50;100.00;63355.56;5024939;28;20040;-79
2024/03/17 00:38:35;;;;;;;7.15;1.70;;;;;;;-141.50;100.00;63355.56;5039428;28;20052;-81
2024/03/17 00:41:03;;;;;;;3.65;1.52;;;;;;;-141.50;100.00;63355.56;5034747;28;20051;-80
2024/03/17 00:43:29;;;;;;;6.85;1.85;;;;;;;-141.50;100.00;63355.56;5036173;28;20596;-80
2024/03/17 00:45:54;;;;;;;3.55;1.58;;;;;;;-141.50;100.00;63355.56;5033180;28;20163;-80
2024/03/17 00:48:20;;;;;;;6.10;1.88;;;;;;;-141.50;100.00;63355.56;5053975;28;20056;-80
2024/03/17 00:50:46;;;;;;;5.45;1.77;;;;;;;-141.50;100.00;63355.56;5048454;28;20041;-80
2024/03/17 00:53:12;;;;;;;4.95;1.63;;;;;;;-141.50;100.00;63355.56;5036269;28;20429;-80
2024/03/17 00:55:38;;;;;;;5.30;1.60;;;;;;;-141.50;100.00;63355.56;5047948;28;20048;-80
2024/03/17 00:58:04;;;;;;;4.88;1.52;;;;;;;-141.50;100.00;63355.56;5048403;28;20036;-80
2024/03/17 01:00:32;;;;;;;8.00;1.50;;;;;;;-141.50;100.00;63355.56;5054858;28;20052;-81
2024/03/17 01:02:59;;;;;;;6.60;1.77;;;;;;;-141.50;100.00;63355.56;5037477;28;20076;-82
2024/03/17 01:05:24;;;;;;;5.97;1.58;;;;;;;-141.50;100.00;63355.56;5037162;28;20052;-82
2024/03/17 01:07:50;;;;;;;5.55;1.58;;;;;;;-141.50;100.00;63355.56;5038030;28;20063;-83
2024/03/17 01:10:16;;;;;;;6.03;1.38;;;;;;;-141.50;100.00;63355.56;5054498;28;20040;-82
2024/03/17 01:12:42;;;;;;;5.47;1.65;;;;;;;-141.50;100.00;63355.56;5063049;28;20048;-81
2024/03/17 01:15:09;;;;;;;6.45;1.73;;;;;;;-141.50;100.00;63355.56;5032894;28;20413;-82
2024/03/17 01:17:34;;;;;;;5.65;1.40;;;;;;;-141.50;100.00;63355.56;5032991;28;20105;-82
2024/03/17 01:20:03;;;;;;;3.47;1.48;;;;;;;-141.50;100.00;63355.56;5034159;28;20049;-82
2024/03/17 01:22:29;;;;;;;4.22;1.20;;;;;;;-141.50;100.00;63355.56;5030189;28;20041;-81
2024/03/17 01:24:54;;;;;;;3.83;1.48;;;;;;;-141.50;100.00;63355.56;5030123;28;20059;-81
2024/03/17 01:27:20;;;;;;;4.22;1.38;;;;;;;-141.50;100.00;63355.56;5035983;28;20037;-81
2024/03/17 01:29:46;;;;;;;4.78;1.58;;;;;;;-141.50;100.00;63355.56;5052404;28;20051;-80
2024/03/17 01:32:12;;;;;;;3.17;1.40;;;;;;;-141.50;100.00;63355.56;5031469;28;20055;-81
2024/03/17 01:34:39;;;;;;;6.40;1.55;;;;;;;-141.50;100.00;63355.56;5055059;28;20052;-80
2024/03/17 01:37:05;;;;;;;3.72;1.30;;;;;;;-141.50;100.00;63355.56;5047728;28;20137;-81
2024/03/17 01:39:32;;;;;;;2.75;1.40;;;;;;;-141.50;100.00;63355.56;5031470;28;20040;-81
2024/03/17 01:41:58;;;;;;;6.25;1.48;;;;;;;-141.50;100.00;63355.56;5032357;28;20057;-82
2024/03/17 01:44:27;;;;;;;6.80;1.50;;;;;;;-141.50;100.00;63355.56;5044755;28;20488;-81
2024/03/17 01:46:55;;;;;;;6.35;1.63;;;;;;;-141.50;100.00;63355.56;5050657;28;20108;-80
2024/03/17 01:49:21;;;;;;;3.38;1.45;;;;;;;-141.50;100.00;63355.56;5045070;28;20059;-80
2024/03/17 01:51:49;;;;;;;4.90;1.60;;;;;;;-141.50;100.00;63355.56;5028643;28;20119;-81
2024/03/17 01:54:16;;;;;;;5.20;1.50;;;;;;;-141.50;100.00;63355.56;5041337;28;20045;-82
2024/03/17 01:56:43;;;;;;;9.40;1.73;;;;;;;-141.50;100.00;63355.56;5034379;28;20064;-82
2024/03/17 01:59:10;;;;;;;5.03;1.67;;;;;;;-141.50;100.00;63355.56;5044918;28;20076;-82
2024/03/17 02:01:36;;;;;;;5.57;1.50;;;;;;;-141.50;100.00;63355.56;5045629;28;20064;-81
2024/03/17 02:04:04;;;;;;;4.88;1.38;;;;;;;-141.50;100.00;63355.56;5048403;28;20102;-83
2024/03/17 02:06:30;;;;;;;4.15;1.38;;;;;;;-141.50;100.00;63355.56;5012286;28;20132;-82
2024/03/17 02:08:56;;;;;;;3.83;1.60;;;;;;;-141.50;100.00;63355.56;5046688;28;20055;-82
2024/03/17 02:11:29;;;;;;;10.18;1.92;;;;;;;-141.50;100.00;63355.56;5032396;28;20053;-80
2024/03/17 02:13:56;;;;;;;8.07;1.48;;;;;;;-141.50;100.00;63355.56;5031032;28;20543;-81
2024/03/17 02:16:23;;;;;;;4.03;1.50;;;;;;;-141.50;100.00;63355.56;5014883;28;20071;-82
2024/03/17 02:18:49;;;;;;;6.57;1.45;;;;;;;-141.50;100.00;63355.56;5070218;28;20526;-81
2024/03/17 02:21:15;;;;;;;6.30;1.30;;;;;;;-141.50;100.00;63355.56;5062915;28;20410;-82
2024/03/17 02:23:42;;;;;;;7.32;1.67;;;;;;;-141.50;100.00;63355.56;5053552;28;20045;-82
2024/03/17 02:26:08;;;;;;;3.83;1.38;;;;;;;-141.50;100.00;63355.56;5053729;28;20064;-81
2024/03/17 02:28:42;;;;;;;3.42;1.40;;;;;;;-141.50;100.00;63355.56;5053017;28;20064;-82
2024/03/17 02:31:11;;;;;;;5.55;1.42;;;;;;;-141.50;100.00;63355.56;5031748;28;20059;-82
2024/03/17 02:33:38;;;;;;;3.75;1.30;;;;;;;-141.50;100.00;63355.56;5058504;28;20117;-81
2024/03/17 02:36:07;;;;;;;4.05;1.50;;;;;;;-141.50;100.00;63355.56;5031854;28;20061;-83
2024/03/17 02:41:21;;;;;;;6.20;1.30;;;;;;;-141.50;100.00;63355.56;5049349;28;20170;-82
2024/03/17 02:43:50;;;;;;;11.15;1.40;;;;;;;-141.50;100.00;63355.56;5042834;28;20060;-81
2024/03/17 02:46:18;;;;;;;4.90;1.30;;;;;;;-141.50;100.00;63355.56;5049473;28;20057;-81
2024/03/17 02:48:51;;;;;;;4.90;1.77;;;;;;;-141.50;100.00;63355.56;5050294;28;20052;-80
2024/03/17 02:51:19;;;;;;;3.45;1.45;;;;;;;-141.50;100.00;63355.56;5050005;28;20075;-80
2024/03/17 02:53:47;;;;;;;8.63;1.85;;;;;;;-141.50;100.00;63355.56;5031735;28;20159;-80
2024/03/17 02:56:16;;;;;;;4.68;1.30;;;;;;;-141.50;100.00;63355.56;5040889;28;20041;-80
2024/03/17 02:58:43;;;;;;;4.72;1.70;;;;;;;-141.50;100.00;63355.56;5044361;28;20057;-81
2024/03/17 03:01:12;;;;;;;6.03;1.38;;;;;;;-141.50;100.00;63355.56;5050654;28;20044;-81
2024/03/17 03:03:38;;;;;;;4.95;1.25;;;;;;;-141.50;100.00;63355.56;5036356;28;20067;-81
2024/03/17 03:06:08;;;;;;;4.30;1.38;;;;;;;-141.50;100.00;63355.56;5049880;28;20206;-82
2024/03/17 03:08:40;;;;;;;9.80;1.70;;;;;;;-141.50;100.00;63355.56;5049563;28;20148;-82
2024/03/17 03:11:11;;;;;;;4.57;1.42;;;;;;;-141.50;100.00;63355.56;5043520;28;20048;-83
2024/03/17 03:13:39;;;;;;;5.03;1.50;;;;;;;-141.50;100.00;63355.56;5046400;28;20064;-82
2024/03/17 03:16:09;;;;;;;5.38;1.90;;;;;;;-141.50;100.00;63355.56;5032227;28;20291;-83
2024/03/17 03:18:41;;;;;;;3.33;1.30;;;;;;;-141.50;100.00;63355.56;5051244;28;20077;-80
2024/03/17 03:21:07;;;;;;;4.80;1.25;;;;;;;-141.50;100.00;63355.56;5024075;28;20045;-81
2024/03/17 03:23:33;;;;;;;3.13;1.30;;;;;;;-141.50;100.00;63355.56;5040782;28;20095;-81
2024/03/17 03:26:02;;;;;;;4.55;1.23;;;;;;;-141.50;100.00;63355.56;5024243;28;20743;-79
2024/03/17 03:28:30;;;;;;;4.90;1.40;;;;;;;-141.50;100.00;63355.56;5055154;28;20558;-80
2024/03/17 03:30:59;;;;;;;5.30;1.33;;;;;;;-141.50;100.00;63355.56;5055630;28;20104;-82
2024/03/17 03:33:25;;;;;;;8.00;1.65;;;;;;;-141.50;100.00;63355.56;5049729;28;20418;-82
2024/03/17 03:35:55;;;;;;;5.85;1.50;;;;;;;-141.50;100.00;63355.56;5060362;28;20156;-81
2024/03/17 03:38:25;;;;;;;6.43;1.40;;;;;;;-141.50;100.00;63355.56;5030827;28;20043;-82
2024/03/17 03:40:52;;;;;;;4.72;1.52;;;;;;;-141.50;100.00;63355.56;5032273;28;20041;-82
2024/03/17 03:43:18;;;;;;;4.90;1.60;;;;;;;-141.50;100.00;63355.56;5051159;28;20111;-82
2024/03/17 03:45:44;;;;;;;4.95;1.40;;;;;;;-141.50;100.00;63355.56;5041496;28;20044;-82
2024/03/17 03:48:10;;;;;;;2.67;0.95;;;;;;;-141.50;100.00;63355.56;5028852;28;20037;-83
2024/03/17 03:50:38;;;;;;;6.50;1.50;;;;;;;-141.50;100.00;63355.56;5046191;28;20059;-81
2024/03/17 03:53:05;;;;;;;3.00;1.38;;;;;;;-141.50;100.00;63355.56;5035067;28;20390;-81
2024/03/17 03:55:32;;;;;;;2.80;1.40;;;;;;;-141.50;100.00;63355.56;5038815;28;20057;-81
2024/03/17 03:57:57;;;;;;;9.15;2.42;;;;;;;-141.50;100.00;63355.56;5037724;28;20069;-81
2024/03/17 04:00:23;;;;;;;6.78;1.60;;;;;;;-141.50;100.00;63355.56;5039706;28;20041;-81
2024/03/17 04:02:51;;;;;;;3.95;1.45;;;;;;;-141.50;100.00;63355.56;5038193;28;20054;-80
2024/03/17 04:05:18;;;;;;;5.72;1.30;;;;;;;-141.50;100.00;63355.56;5035171;28;20044;-80
2024/03/17 04:07:46;;;;;;;10.55;1.67;;;;;;;-141.50;100.00;63355.56;5054601;28;20064;-82
2024/03/17 04:10:13;;;;;;;3.70;1.42;;;;;;;-141.50;100.00;63355.56;5051784;28;20093;-80
2024/03/17 04:12:39;;;;;;;3.72;1.40;;;;;;;-141.50;100.00;63355.56;5055380;28;20052;-82
2024/03/17 04:15:06;;;;;;;7.22;1.40;;;;;;;-141.50;100.00;63355.56;5031729;28;20040;-82
2024/03/17 04:17:33;;;;;;;5.68;1.50;;;;;;;-141.50;100.00;63355.56;5054979;28;20262;-82
2024/03/17 04:19:59;;;;;;;4.65;1.77;;;;;;;-141.50;100.00;63355.56;5041746;28;20109;-82
2024/03/17 04:22:24;;;;;;;4.75;1.48;;;;;;;-141.50;100.00;63355.56;5053881;28;20132;-81
2024/03/17 04:24:56;;;;;;;6.32;1.80;;;;;;;-141.50;100.00;63355.56;5054806;28;20131;-84
2024/03/17 04:27:25;;;;;;;7.53;1.73;;;;;;;-141.50;100.00;63355.56;5059425;28;20049;-83
2024/03/17 04:29:55;;;;;;;8.02;1.90;;;;;;;-141.50;100.00;63355.56;5051398;28;20119;-80
2024/03/17 04:32:21;;;;;;;3.33;1.50;;;;;;;-141.50;100.00;63355.56;5021442;28;20398;-80
2024/03/17 04:34:47;;;;;;;4.82;1.80;;;;;;;-141.50;100.00;63355.56;5036414;28;20074;-81
2024/03/17 04:37:13;;;;;;;4.97;1.48;;;;;;;-141.50;100.00;63355.56;5054427;28;20045;-81
2024/03/17 04:39:39;;;;;;;4.22;1.60;;;;;;;-141.50;100.00;63355.56;5057345;28;20468;-81
2024/03/17 04:42:06;;;;;;;10.52;1.52;;;;;;;-141.50;100.00;63355.56;5052754;28;20044;-80
2024/03/17 04:44:32;;;;;;;7.68;1.77;;;;;;;-141.50;100.00;63355.56;5059182;28;20052;-83
2024/03/17 04:46:58;;;;;;;3.40;1.30;;;;;;;-141.50;100.00;63355.56;5065486;28;20065;-82
2024/03/17 04:49:24;;;;;;;6.13;1.50;;;;;;;-141.50;100.00;63355.56;5048068;28;20414;-82
2024/03/17 04:51:49;;;;;;;7.13;1.80;;;;;;;-141.50;100.00;63355.56;5055320;28;20446;-82
2024/03/17 04:54:16;;;;;;;4.07;1.38;;;;;;;-141.50;100.00;63355.56;5054617;28;20052;-83
2024/03/17 04:56:41;;;;;;;7.93;1.83;;;;;;;-141.50;100.00;63355.56;5054600;28;20067;-81
2024/03/17 04:59:07;;;;;;;7.30;1.55;;;;;;;-141.50;100.00;63355.56;5055451;28;20041;-82
2024/03/17 05:01:36;;;;;;;3.45;1.63;;;;;;;-141.50;100.00;63355.56;5055189;28;20040;-81
2024/03/17 05:04:03;;;;;;;4.68;1.90;;;;;;;-141.50;100.00;63355.56;5049391;28;20408;-81
2024/03/17 05:06:29;;;;;;;5.07;1.45;;;;;;;-141.50;100.00;63355.56;5033153;28;20041;-80
2024/03/17 05:08:55;;;;;;;5.32;1.75;;;;;;;-141.50;100.00;63355.56;5055822;28;20072;-83
2024/03/17 05:11:21;;;;;;;9.45;2.00;;;;;;;-141.50;100.00;63355.56;5034686;28;20573;-83
2024/03/17 05:13:46;;;;;;;6.50;1.65;;;;;;;-141.50;100.00;63355.56;5038337;28;20056;-83
2024/03/17 05:16:12;;;;;;;10.85;1.90;;;;;;;-141.50;100.00;63355.56;5031582;28;20048;-80
2024/03/17 05:18:39;;;;;;;7.82;1.70;;;;;;;-141.50;100.00;63355.56;5036344;28;20048;-82
2024/03/17 05:21:06;;;;;;;7.88;1.70;;;;;;;-141.50;100.00;63355.56;5049854;28;20037;-83
2024/03/17 05:23:34;;;;;;;5.50;1.52;;;;;;;-141.50;100.00;63355.56;5030573;28;20048;-82
2024/03/17 05:26:00;;;;;;;4.63;1.60;;;;;;;-141.50;100.00;63355.56;5052619;28;20331;-81
2024/03/17 05:28:29;;;;;;;8.98;1.60;;;;;;;-141.50;100.00;63355.56;5045736;28;20049;-81
2024/03/17 05:30:56;;;;;;;4.07;1.40;;;;;;;-141.50;100.00;63355.56;5030715;28;20051;-83
2024/03/17 05:33:26;;;;;;;4.75;1.50;;;;;;;-141.50;100.00;63355.56;5051584;28;20505;-80
2024/03/17 05:35:56;;;;;;;5.10;1.98;;;;;;;-141.50;100.00;63355.56;5055650;28;20063;-82
2024/03/17 05:38:26;;;;;;;6.38;1.88;;;;;;;-141.50;100.00;63355.56;5036271;28;20048;-83
2024/03/17 05:41:06;;;;;;;4.40;1.73;;;;;;;-141.50;100.00;63355.56;5053650;28;20129;-83
2024/03/17 05:43:40;;;;;;;5.65;1.80;;;;;;;-141.50;100.00;63355.56;5053106;28;20481;-83
2024/03/17 05:46:08;;;;;;;10.27;1.90;;;;;;;-141.50;100.00;63355.56;5036121;28;20080;-83
2024/03/17 05:48:37;;;;;;;6.30;1.60;;;;;;;-141.50;100.00;63355.56;5037374;28;20094;-84
2024/03/17 05:51:07;;;;;;;5.68;1.65;;;;;;;-141.50;100.00;63355.56;5053508;28;20045;-81
2024/03/17 05:53:33;;;;;;;7.57;1.50;;;;;;;-141.50;100.00;63355.56;5054866;28;20045;-82
2024/03/17 05:56:00;;;;;;;4.43;1.48;;;;;;;-141.50;100.00;63355.56;5033813;28;27985;-82
2024/03/17 05:58:26;;;;;;;7.97;1.92;;;;;;;-141.50;100.00;63355.56;5053491;28;20473;-82
2024/03/17 06:00:52;;;;;;;5.20;1.70;;;;;;;-141.50;100.00;63355.56;5048353;28;20052;-83
2024/03/17 06:03:18;;;;;;;5.85;1.70;;;;;;;-141.50;100.00;63355.56;5053525;28;20052;-82
2024/03/17 06:05:47;;;;;;;5.72;1.63;;;;;;;-141.50;100.00;63355.56;5033368;28;20091;-81
2024/03/17 06:08:13;;;;;;;8.43;1.95;;;;;;;-141.50;100.00;63355.56;5012522;28;20044;-81
2024/03/17 06:10:47;;;;;;;5.03;1.70;;;;;;;-141.50;100.00;63355.56;5049383;28;20052;-78
2024/03/17 06:13:16;;;;;;;5.15;1.60;;;;;;;-141.50;100.00;63355.56;5051694;28;20108;-81
2024/03/17 06:15:48;;;;;;;4.10;1.73;;;;;;;-141.50;100.00;63355.56;5046521;28;20407;-80
2024/03/17 06:18:16;;;;;;;10.48;1.92;;;;;;;-141.50;100.00;63355.56;5051314;28;20047;-82
2024/03/17 06:20:44;;;;;;;6.70;2.03;;;;;;;-141.50;100.00;63355.56;5033048;28;20058;-81
2024/03/17 06:23:11;;;;;;;6.68;2.08;;;;;;;-141.50;100.00;63355.56;5056536;28;20047;-81
2024/03/17 06:25:42;;;;;;;5.80;1.90;;;;;;;-141.50;100.00;63355.56;5051333;28;20041;-81
2024/03/17 06:28:10;;;;;;;4.40;2.25;;;;;;;-141.50;100.00;63355.56;5049002;28;20097;-81
2024/03/17 06:30:36;;;;;;;8.68;2.38;;;;;;;-141.50;100.00;63355.56;5044102;28;20060;-79
2024/03/17 06:33:02;;;;;;;9.30;2.10;;;;;;;-141.50;100.00;63355.56;5030286;28;20044;-80
2024/03/17 06:35:30;;;;;;;5.60;1.90;;;;;;;-141.50;100.00;63355.56;5047375;28;20051;-81
2024/03/17 06:38:00;;;;;;;9.00;2.08;;;;;;;-141.50;100.00;63355.56;5058839;28;20108;-81
2024/03/17 06:40:25;;;;;;;7.47;1.90;;;;;;;-141.50;100.00;63355.56;5040426;28;20094;-80
2024/03/17 06:42:53;;;;;;;12.68;1.90;;;;;;;-141.50;100.00;63355.56;5027929;28;20060;-81
2024/03/17 06:45:22;;;;;;;8.98;2.20;;;;;;;-141.50;100.00;63355.56;5046837;28;20051;-79
2024/03/17 06:47:47;;;;;;;8.00;2.25;;;;;;;-141.50;100.00;63355.56;5032932;28;20086;-80
2024/03/17 06:50:14;;;;;;;7.70;2.40;;;;;;;-141.50;100.00;63355.56;5049096;28;20040;-79
2024/03/17 06:52:40;;;;;;;6.28;1.63;;;;;;;-141.50;100.00;63355.56;5027264;28;20083;-81
2024/03/17 06:55:06;;;;;;;3.33;1.55;;;;;;;-141.50;100.00;63355.56;5017995;28;20641;-78
2024/03/17 06:57:36;;;;;;;6.95;1.95;;;;;;;-141.50;100.00;63355.56;5028323;28;20044;-82
2024/03/17 07:00:05;;;;;;;6.43;1.80;;;;;;;-141.50;100.00;63355.56;5039045;28;20120;-80
2024/03/17 07:02:32;;;;;;;8.52;2.22;;;;;;;-141.50;100.00;63355.56;5044701;28;20045;-78
2024/03/17 07:04:58;;;;;;;7.03;2.47;;;;;;;-141.50;100.00;63355.56;5050036;28;20045;-78
2024/03/17 07:07:28;;;;;;;9.63;2.25;;;;;;;-141.50;100.00;63355.56;5039227;28;20121;-81
2024/03/17 07:09:54;;;;;;;7.03;1.98;;;;;;;-141.50;100.00;63355.56;5047922;28;20304;-80
2024/03/17 07:12:20;;;;;;;4.88;1.70;;;;;;;-141.50;100.00;63355.56;5046417;28;20049;-81
2024/03/17 07:14:46;;;;;;;8.32;1.92;;;;;;;-141.50;100.00;63355.56;5029080;28;20454;-80
2024/03/17 07:17:11;;;;;;;8.80;2.03;;;;;;;-141.50;100.00;63355.56;5029191;28;20033;-80
2024/03/17 07:19:37;;;;;;;6.22;2.38;;;;;;;-141.50;100.00;63355.56;5040349;28;20326;-80
2024/03/17 07:22:06;;;;;;;9.65;2.30;;;;;;;-141.50;100.00;63355.56;5030951;28;20045;-81
2024/03/17 07:24:33;;;;;;;9.18;2.53;;;;;;;-141.50;100.00;63355.56;5030197;28;20040;-81
2024/03/17 07:26:59;;;;;;;10.93;2.42;;;;;;;-141.50;100.00;63355.56;5028284;28;20047;-81
2024/03/17 07:29:24;;;;;;;6.72;2.00;;;;;;;-141.50;100.00;63355.56;5025124;28;20037;-82
2024/03/17 07:31:50;;;;;;;5.35;2.13;;;;;;;-141.50;100.00;63355.56;5034347;28;20544;-81
2024/03/17 07:34:16;;;;;;;7.40;2.22;;;;;;;-141.50;100.00;63355.56;5035786;28;20069;-82
2024/03/17 07:36:42;;;;;;;6.07;2.20;;;;;;;-141.50;100.00;63355.56;5027202;28;20053;-81
2024/03/17 07:39:07;;;;;;;8.13;2.00;;;;;;;-141.50;100.00;63355.56;5006677;28;20065;-80
2024/03/17 07:41:33;;;;;;;8.02;2.13;;;;;;;-141.50;100.00;63355.56;5028851;28;20037;-82
2024/03/17 07:43:59;;;;;;;7.53;2.00;;;;;;;-141.50;100.00;63355.56;5043697;28;20144;-81
2024/03/17 07:46:24;;;;;;;7.60;2.30;;;;;;;-141.50;100.00;63355.56;5030620;28;20093;-81
2024/03/17 07:48:51;;;;;;;6.60;2.03;;;;;;;-141.50;100.00;63355.56;5022712;28;20080;-82
2024/03/17 07:51:17;;;;;;;12.02;2.30;;;;;;;-141.50;100.00;63355.56;5042007;28;20045;-81
2024/03/17 07:53:51;;;;;;;8.90;2.22;;;;;;;-141.50;100.00;63355.56;5049085;28;20710;-80
2024/03/17 07:56:17;;;;;;;11.07;2.35;;;;;;;-141.50;100.00;63355.56;5030694;28;20049;-81
2024/03/17 07:58:44;;;;;;;7.93;2.03;;;;;;;-141.50;100.00;63355.56;5030965;28;20099;-82
2024/03/17 08:01:15;;;;;;;8.05;2.38;;;;;;;-141.50;100.00;63355.56;5040475;28;20136;-82
2024/03/17 08:03:53;;;;;;;8.77;2.13;;;;;;;-141.50;100.00;63355.56;5038083;28;20047;-83
2024/03/17 08:06:20;;;;;;;7.97;1.95;;;;;;;-141.50;100.00;63355.56;5041660;28;20094;-81
2024/03/17 08:08:46;;;;;;;8.27;2.17;;;;;;;-141.50;100.00;63355.56;5024711;28;20099;-82
2024/03/17 08:11:12;;;;;;;6.05;1.80;;;;;;;-141.50;100.00;63355.56;5028592;28;20094;-82
2024/03/17 08:13:39;;;;;;;5.35;2.05;;;;;;;-141.50;100.00;63355.56;5017929;28;20045;-81
2024/03/17 08:16:06;;;;;;;7.82;2.95;;;;;;;-141.50;100.00;63355.56;5013741;28;20052;-82
2024/03/17 08:18:33;;;;;;;8.25;2.17;;;;;;;-141.50;100.00;63355.56;5032714;28;20127;-81
2024/03/17 08:21:00;;;;;;;11.27;2.78;;;;;;;-141.50;100.00;63355.56;5037750;28;20067;-80
2024/03/17 08:23:26;;;;;;;7.63;2.42;;;;;;;-141.50;100.00;63355.56;5028469;28;20068;-79
2024/03/17 08:25:52;;;;;;;11.20;2.60;;;;;;;-141.50;100.00;63355.56;5038348;28;20113;-81
2024/03/17 08:28:18;;;;;;;10.35;2.47;;;;;;;-141.50;100.00;63355.56;5032154;28;20070;-83
2024/03/17 08:31:11;;;;;;;8.90;2.90;;;;;;;-141.50;100.00;63355.56;5033699;28;20094;-81
2024/03/17 08:33:37;;;;;;;9.20;2.22;;;;;;;-141.50;100.00;63355.56;5025658;28;20060;-81
2024/03/17 08:36:07;;;;;;;9.35;2.22;;;;;;;-141.50;100.00;63355.56;5041612;28;20158;-81
2024/03/17 08:38:34;;;;;;;5.97;2.47;;;;;;;-141.50;100.00;63355.56;5024308;28;20044;-81
2024/03/17 08:41:07;;;;;;;7.25;2.15;;;;;;;-141.50;100.00;63355.56;5034119;28;20049;-81
2024/03/17 08:43:34;;;;;;;9.18;2.00;;;;;;;-141.50;100.00;63355.56;5055951;28;20045;-82
2024/03/17 08:46:03;;;;;;;6.07;1.70;;;;;;;-141.50;100.00;63355.56;5032035;28;20078;-80
2024/03/17 08:48:30;;;;;;;11.95;2.67;;;;;;;-141.50;100.00;63355.56;5046354;28;20051;-82
2024/03/17 08:50:57;;;;;;;8.23;2.30;;;;;;;-141.50;100.00;63355.56;5044169;28;20067;-81
2024/03/17 08:53:23;;;;;;;7.93;1.80;;;;;;;-141.50;100.00;63355.56;5030819;28;20048;-81
2024/03/17 08:55:50;;;;;;;9.88;1.80;;;;;;;-141.50;100.00;63355.56;5048350;28;20040;-81
2024/03/17 08:58:16;;;;;;;9.90;1.75;;;;;;;-141.50;100.00;63355.56;5045016;28;20194;-82
2024/03/17 09:00:42;;;;;;;13.63;2.00;;;;;;;-141.50;100.00;63355.56;5030416;28;20548;-80
2024/03/17 09:03:10;;;;;;;9.57;2.03;;;;;;;-141.50;100.00;63355.56;5046883;28;20044;-81
2024/03/17 09:05:36;;;;;;;7.45;2.20;;;;;;;-141.50;100.00;63355.56;5029386;28;20118;-80
2024/03/17 09:08:03;;;;;;;4.68;1.90;;;;;;;-141.50;100.00;63355.56;5048785;28;20441;-81
2024/03/17 09:10:29;;;;;;;7.75;2.17;;;;;;;-141.50;100.00;63355.56;5042060;28;20045;-82
2024/03/17 09:12:55;;;;;;;4.80;2.22;;;;;;;-141.50;100.00;63355.56;5045395;28;20095;-81
2024/03/17 09:15:21;;;;;;;4.90;2.10;;;;;;;-141.50;100.00;63355.56;5043329;28;20082;-81
2024/03/17 09:17:47;;;;;;;9.73;2.00;;;;;;;-141.50;100.00;63355.56;5056172;28;20042;-81
2024/03/17 09:20:17;;;;;;;8.00;2.05;;;;;;;-141.50;100.00;63355.56;5053252;28;20040;-81
2024/03/17 09:22:43;;;;;;;6.18;1.90;;;;;;;-141.50;100.00;63355.56;5021118;28;20152;-81
2024/03/17 09:25:09;;;;;;;7.32;1.98;;;;;;;-141.50;100.00;63355.56;5046222;28;20052;-80
2024/03/17 09:27:38;;;;;;;8.07;2.15;;;;;;;-141.50;100.00;63355.56;5035225;28;20056;-80
2024/03/17 09:30:11;;;;;;;6.53;2.15;;;;;;;-141.50;100.00;63355.56;5053662;28;20055;-80
2024/03/17 09:32:37;;;;;;;8.02;2.38;;;;;;;-141.50;100.00;63355.56;5035848;28;20045;-79
2024/03/17 09:35:04;;;;;;;10.70;2.00;;;;;;;-141.50;100.00;63355.56;5051916;28;20268;-80
2024/03/17 09:37:31;;;;;;;8.07;2.35;;;;;;;-141.50;100.00;63355.56;5054761;28;20119;-80
2024/03/17 09:39:59;;;;;;;12.63;2.10;;;;;;;-141.50;100.00;63355.56;5037448;28;20049;-80
2024/03/17 09:42:29;;;;;;;5.45;2.10;;;;;;;-141.50;100.00;63355.56;5034251;28;20045;-81
2024/03/17 09:44:56;;;;;;;5.63;1.75;;;;;;;-141.50;100.00;63355.56;5053037;28;20075;-80
2024/03/17 09:47:23;;;;;;;7.40;1.90;;;;;;;-141.50;100.00;63355.56;5059965;28;20070;-80
2024/03/17 09:49:50;;;;;;;6.15;2.00;;;;;;;-141.50;100.00;63355.56;5073084;28;20066;-80
2024/03/17 09:52:22;;;;;;;6.60;2.10;;;;;;;-141.50;100.00;63355.56;5027646;28;20048;-79
2024/03/17 09:54:52;;;;;;;9.70;2.05;;;;;;;-141.50;100.00;63355.56;5059454;28;20037;-77
2024/03/17 09:57:18;;;;;;;5.93;1.75;;;;;;;-141.50;100.00;63355.56;5031380;28;20064;-78
2024/03/17 09:59:50;;;;;;;5.45;1.42;;;;;;;-141.50;100.00;63355.56;5054617;28;20543;-80
2024/03/17 10:02:18;;;;;;;6.70;2.10;;;;;;;-141.50;100.00;63355.56;5054682;28;20094;-80
2024/03/17 10:04:44;;;;;;;8.10;2.28;;;;;;;-141.50;100.00;63355.56;5049565;28;20108;-80
2024/03/17 10:07:10;;;;;;;5.03;1.45;;;;;;;-141.50;100.00;63355.56;5060529;28;20048;-79
2024/03/17 10:09:36;;;;;;;5.53;1.52;;;;;;;-141.50;100.00;63355.56;5055002;28;20055;-79
2024/03/17 10:12:02;;;;;;;4.38;1.38;;;;;;;-141.50;100.00;63355.56;5056167;28;20434;-80
2024/03/17 10:14:28;;;;;;;5.78;1.58;;;;;;;-141.50;100.00;63355.56;5034028;28;20446;-80
2024/03/17 10:16:54;;;;;;;6.28;1.73;;;;;;;-141.50;100.00;63355.56;5047442;28;20037;-81
2024/03/17 10:19:27;;;;;;;4.20;2.10;;;;;;;-141.50;100.00;63355.56;5052902;28;20046;-80
2024/03/17 10:22:01;;;;;;;4.63;1.55;;;;;;;-141.50;100.00;63355.56;5046424;28;20048;-82
2024/03/17 10:24:31;;;;;;;3.00;1.20;;;;;;;-141.50;100.00;63355.56;5050004;28;20068;-81
2024/03/17 10:27:02;;;;;;;7.65;1.80;;;;;;;-141.50;100.00;63355.56;5059424;28;20064;-81
2024/03/17 10:29:33;;;;;;;3.70;1.50;;;;;;;-141.50;100.00;63355.56;5034672;28;20060;-79
2024/03/17 10:32:02;;;;;;;5.00;1.50;;;;;;;-141.50;100.00;63355.56;5051204;28;20511;-80
2024/03/17 10:34:34;;;;;;;6.45;1.88;;;;;;;-141.50;100.00;63355.56;5028032;28;20041;-80
2024/03/17 10:37:23;;;;;;;6.68;1.80;;;;;;;-141.50;100.00;63355.56;5045711;28;20048;-78
2024/03/17 10:39:51;;;;;;;5.53;1.73;;;;;;;-141.50;100.00;63355.56;5005597;28;20049;-78
2024/03/17 10:42:28;;;;;;;9.27;1.52;;;;;;;-141.50;100.00;63355.56;5050140;28;20041;-80
2024/03/17 10:44:55;;;;;;;4.30;1.80;;;;;;;-141.50;100.00;63355.56;5052274;28;20127;-77
2024/03/17 10:47:23;;;;;;;7.07;1.50;;;;;;;-141.50;100.00;63355.56;5060195;28;20055;-80
2024/03/17 10:49:53;;;;;;;8.50;1.83;;;;;;;-141.50;100.00;63355.56;5037453;28;20544;-80
2024/03/17 10:52:20;;;;;;;9.60;1.90;;;;;;;-141.50;100.00;63355.56;5033958;28;20044;-78
2024/03/17 10:54:52;;;;;;;3.85;1.52;;;;;;;-141.50;100.00;63355.56;5046248;28;20128;-81
2024/03/17 10:57:30;;;;;;;4.63;1.63;;;;;;;-141.50;100.00;63355.56;5050783;28;20040;-79
2024/03/17 10:59:58;;;;;;;5.40;1.92;;;;;;;-141.50;100.00;63355.56;5034150;28;20070;-79
2024/03/17 11:02:27;;;;;;;6.40;2.10;;;;;;;-141.50;100.00;63355.56;5035603;28;20048;-79
2024/03/17 11:04:59;;;;;;;4.38;1.60;;;;;;;-141.50;100.00;63355.56;5040975;28;20560;-78
2024/03/17 11:07:26;;;;;;;5.97;1.77;;;;;;;-141.50;100.00;63355.56;5050610;28;20044;-79
2024/03/17 11:09:55;;;;;;;3.33;1.95;;;;;;;-141.50;100.00;63355.56;5034796;28;20136;-78
2024/03/17 11:12:39;;;;;;;5.65;1.80;;;;;;;-141.50;100.00;63355.56;5050889;28;20064;-80
2024/03/17 11:15:26;;;;;;;5.93;1.58;;;;;;;-141.50;100.00;63355.56;5053080;28;20049;-79